sensor_id;sensor_type;location;lat;lon;timestamp;temperature;humidity
11280;DHT22;5696;50.928;6.960;2022-09-09T05:03:08;18.00;99.90
11280;DHT22;5696;50.928;6.960;2022-09-09T05:05:34;18.10;99.90
11280;DHT22;5696;50.928;6.960;2022-09-09T05:08:05;18.10;99.90
11280;DHT22;5696;50.928;6.960;2022-09-09T05:10:32;18.10;99.90
11280;DHT22;5696;50.928;6.960;2022-09-09T05:12:58;18.10;99.90
11280;DHT22;5696;50.928;6.960;2022-09-09T05:15:23;18.20;99.90
11280;DHT22;5696;50.928;6.960;2022-09-09T05:17:49;18.10;99.90
11280;DHT22;5696;50.928;6.960;2022-09-09T05:20:15;18.20;99.90
11280;DHT22;5696;50.928;6.960;2022-09-09T05:22:40;18.10;99.90
11280;DHT22;5696;50.928;6.960;2022-09-09T05:25:06;18.00;99.90
11280;DHT22;5696;50.928;6.960;2022-09-09T05:27:34;17.90;99.90
11280;DHT22;5696;50.928;6.960;2022-09-09T05:29:59;17.80;99.90
11280;DHT22;5696;50.928;6.960;2022-09-09T05:32:25;17.70;99.90
11280;DHT22;5696;50.928;6.960;2022-09-09T05:34:51;17.60;99.90
11280;DHT22;5696;50.928;6.960;2022-09-09T05:37:18;17.60;99.90
11280;DHT22;5696;50.928;6.960;2022-09-09T05:39:43;17.60;99.90
11280;DHT22;5696;50.928;6.960;2022-09-09T05:42:09;17.70;99.90
11280;DHT22;5696;50.928;6.960;2022-09-09T05:44:35;17.60;99.90
11280;DHT22;5696;50.928;6.960;2022-09-09T05:47:01;17.60;99.90
11280;DHT22;5696;50.928;6.960;2022-09-09T05:49:26;17.60;99.90
11280;DHT22;5696;50.928;6.960;2022-09-09T05:51:53;17.70;99.90
11280;DHT22;5696;50.928;6.960;2022-09-09T05:54:19;17.70;99.90
11280;DHT22;5696;50.928;6.960;2022-09-09T05:56:44;17.70;99.90
11280;DHT22;5696;50.928;6.960;2022-09-09T05:59:10;17.70;99.90
11280;DHT22;5696;50.928;6.960;2022-09-09T06:01:37;17.80;99.90
11280;DHT22;5696;50.928;6.960;2022-09-09T06:04:06;18.00;99.90
11280;DHT22;5696;50.928;6.960;2022-09-09T06:06:34;18.10;99.90
11280;DHT22;5696;50.928;6.960;2022-09-09T06:09:06;18.30;99.90
11280;DHT22;5696;50.928;6.960;2022-09-09T06:11:35;18.60;99.90
11280;DHT22;5696;50.928;6.960;2022-09-09T06:14:01;18.70;99.90
11280;DHT22;5696;50.928;6.960;2022-09-09T06:16:29;18.90;99.90
11280;DHT22;5696;50.928;6.960;2022-09-09T06:18:56;18.90;99.90
11280;DHT22;5696;50.928;6.960;2022-09-09T06:21:30;19.00;99.90
11280;DHT22;5696;50.928;6.960;2022-09-09T06:23:57;18.90;99.90
11280;DHT22;5696;50.928;6.960;2022-09-09T06:26:25;19.10;99.90
11280;DHT22;5696;50.928;6.960;2022-09-09T06:28:53;19.00;99.90
11280;DHT22;5696;50.928;6.960;2022-09-09T06:31:21;19.20;99.90
11280;DHT22;5696;50.928;6.960;2022-09-09T06:33:51;19.60;99.90
11280;DHT22;5696;50.928;6.960;2022-09-09T06:36:19;19.80;99.90
11280;DHT22;5696;50.928;6.960;2022-09-09T06:38:46;20.80;99.90
11280;DHT22;5696;50.928;6.960;2022-09-09T06:41:14;21.10;99.90
11280;DHT22;5696;50.928;6.960;2022-09-09T06:43:40;23.60;99.90
11280;DHT22;5696;50.928;6.960;2022-09-09T06:46:10;24.50;99.90
11280;DHT22;5696;50.928;6.960;2022-09-09T06:48:36;23.90;99.90
11280;DHT22;5696;50.928;6.960;2022-09-09T06:53:29;22.50;99.90
11280;DHT22;5696;50.928;6.960;2022-09-09T06:55:54;25.10;99.90
11280;DHT22;5696;50.928;6.960;2022-09-09T06:58:20;27.00;99.90
11280;DHT22;5696;50.928;6.960;2022-09-09T07:00:47;27.40;98.70
11280;DHT22;5696;50.928;6.960;2022-09-09T07:03:13;25.80;99.90
11280;DHT22;5696;50.928;6.960;2022-09-09T07:05:39;24.10;99.90
11280;DHT22;5696;50.928;6.960;2022-09-09T07:08:05;23.40;99.90
11280;DHT22;5696;50.928;6.960;2022-09-09T07:10:31;23.00;99.90
11280;DHT22;5696;50.928;6.960;2022-09-09T07:12:57;22.60;99.90
11280;DHT22;5696;50.928;6.960;2022-09-09T07:15:22;22.40;99.90
11280;DHT22;5696;50.928;6.960;2022-09-09T07:17:48;22.10;99.90
11280;DHT22;5696;50.928;6.960;2022-09-09T07:20:14;22.00;99.90
11280;DHT22;5696;50.928;6.960;2022-09-09T07:22:40;21.40;99.90
11280;DHT22;5696;50.928;6.960;2022-09-09T07:25:07;21.50;99.90
11280;DHT22;5696;50.928;6.960;2022-09-09T07:27:33;21.50;99.90
11280;DHT22;5696;50.928;6.960;2022-09-09T07:29:58;21.70;99.90
11280;DHT22;5696;50.928;6.960;2022-09-09T07:32:24;22.00;99.90
11280;DHT22;5696;50.928;6.960;2022-09-09T07:34:51;22.00;99.90
11280;DHT22;5696;50.928;6.960;2022-09-09T07:37:17;22.10;99.90
11280;DHT22;5696;50.928;6.960;2022-09-09T07:39:43;22.20;99.90
11280;DHT22;5696;50.928;6.960;2022-09-09T07:42:09;22.20;99.90
11280;DHT22;5696;50.928;6.960;2022-09-09T07:44:37;22.10;99.90
11280;DHT22;5696;50.928;6.960;2022-09-09T07:47:05;22.30;99.90
11280;DHT22;5696;50.928;6.960;2022-09-09T07:49:31;22.50;99.90
11280;DHT22;5696;50.928;6.960;2022-09-09T07:51:58;22.80;99.90
11280;DHT22;5696;50.928;6.960;2022-09-09T07:54:24;23.20;99.90
11280;DHT22;5696;50.928;6.960;2022-09-09T07:56:51;23.30;99.90
11280;DHT22;5696;50.928;6.960;2022-09-09T07:59:17;22.80;99.90
11280;DHT22;5696;50.928;6.960;2022-09-09T08:01:46;22.90;99.90
11280;DHT22;5696;50.928;6.960;2022-09-09T08:04:17;22.90;99.90
11280;DHT22;5696;50.928;6.960;2022-09-09T08:06:49;23.00;99.90
11280;DHT22;5696;50.928;6.960;2022-09-09T08:09:17;22.90;99.90
11280;DHT22;5696;50.928;6.960;2022-09-09T08:11:43;22.60;99.90
11280;DHT22;5696;50.928;6.960;2022-09-09T08:14:10;22.40;99.90
11280;DHT22;5696;50.928;6.960;2022-09-09T08:16:45;22.10;99.90
11280;DHT22;5696;50.928;6.960;2022-09-09T08:19:11;21.80;99.90
11280;DHT22;5696;50.928;6.960;2022-09-09T08:21:39;21.90;99.90
11280;DHT22;5696;50.928;6.960;2022-09-09T08:24:06;21.80;99.90
11280;DHT22;5696;50.928;6.960;2022-09-09T08:26:34;21.80;99.90
11280;DHT22;5696;50.928;6.960;2022-09-09T08:29:02;21.90;99.90
11280;DHT22;5696;50.928;6.960;2022-09-09T08:31:32;22.20;99.90
11280;DHT22;5696;50.928;6.960;2022-09-09T08:33:59;22.70;99.90
11280;DHT22;5696;50.928;6.960;2022-09-09T08:36:27;23.00;99.90
11280;DHT22;5696;50.928;6.960;2022-09-09T08:38:54;23.20;99.90
11280;DHT22;5696;50.928;6.960;2022-09-09T08:41:39;23.70;99.90
11280;DHT22;5696;50.928;6.960;2022-09-09T08:47:16;23.80;99.90
11280;DHT22;5696;50.928;6.960;2022-09-09T08:53:00;23.40;99.60
11280;DHT22;5696;50.928;6.960;2022-09-09T08:55:56;23.10;98.80
11280;DHT22;5696;50.928;6.960;2022-09-09T08:58:33;22.30;99.90
11280;DHT22;5696;50.928;6.960;2022-09-09T09:01:40;22.40;99.90
11280;DHT22;5696;50.928;6.960;2022-09-09T09:04:38;22.80;99.90
11280;DHT22;5696;50.928;6.960;2022-09-09T09:12:28;23.90;97.80
11280;DHT22;5696;50.928;6.960;2022-09-09T09:14:55;23.70;98.00
11280;DHT22;5696;50.928;6.960;2022-09-09T09:17:25;24.10;96.60
11280;DHT22;5696;50.928;6.960;2022-09-09T09:19:53;24.40;95.60
11280;DHT22;5696;50.928;6.960;2022-09-09T09:22:30;24.40;95.40
11280;DHT22;5696;50.928;6.960;2022-09-09T09:25:19;24.20;95.80
11280;DHT22;5696;50.928;6.960;2022-09-09T09:28:02;24.00;95.50
11280;DHT22;5696;50.928;6.960;2022-09-09T09:30:57;23.70;95.60
11280;DHT22;5696;50.928;6.960;2022-09-09T09:35:52;22.90;98.20
11280;DHT22;5696;50.928;6.960;2022-09-09T09:38:21;22.40;99.60
11280;DHT22;5696;50.928;6.960;2022-09-09T09:40:52;22.40;99.90
11280;DHT22;5696;50.928;6.960;2022-09-09T09:43:31;22.30;99.90
11280;DHT22;5696;50.928;6.960;2022-09-09T09:45:57;22.80;99.90
11280;DHT22;5696;50.928;6.960;2022-09-09T09:48:24;23.30;99.20
11280;DHT22;5696;50.928;6.960;2022-09-09T09:51:06;23.10;98.60
11280;DHT22;5696;50.928;6.960;2022-09-09T09:53:36;22.90;99.30
11280;DHT22;5696;50.928;6.960;2022-09-09T09:56:05;22.90;99.80
11280;DHT22;5696;50.928;6.960;2022-09-09T09:58:52;22.60;99.90
11280;DHT22;5696;50.928;6.960;2022-09-09T10:01:28;22.60;99.90
11280;DHT22;5696;50.928;6.960;2022-09-09T10:04:02;23.10;99.50
11280;DHT22;5696;50.928;6.960;2022-09-09T10:06:34;23.80;98.00
11280;DHT22;5696;50.928;6.960;2022-09-09T10:09:01;23.90;97.50
11280;DHT22;5696;50.928;6.960;2022-09-09T10:11:44;23.90;97.10
11280;DHT22;5696;50.928;6.960;2022-09-09T10:14:21;23.80;97.10
11280;DHT22;5696;50.928;6.960;2022-09-09T10:22:33;23.80;96.50
11280;DHT22;5696;50.928;6.960;2022-09-09T10:25:39;23.90;96.30
11280;DHT22;5696;50.928;6.960;2022-09-09T10:46:30;24.20;96.00
11280;DHT22;5696;50.928;6.960;2022-09-09T10:57:05;24.70;94.00
11280;DHT22;5696;50.928;6.960;2022-09-09T10:59:39;24.20;93.80
11280;DHT22;5696;50.928;6.960;2022-09-09T11:02:24;24.20;93.80
11280;DHT22;5696;50.928;6.960;2022-09-09T11:07:44;24.60;93.10
11280;DHT22;5696;50.928;6.960;2022-09-09T11:13:04;24.30;93.20
11280;DHT22;5696;50.928;6.960;2022-09-09T11:15:36;24.00;94.10
11280;DHT22;5696;50.928;6.960;2022-09-09T11:18:07;24.50;93.60
11280;DHT22;5696;50.928;6.960;2022-09-09T11:20:37;24.20;93.70
11280;DHT22;5696;50.928;6.960;2022-09-09T11:23:13;24.30;94.10
11280;DHT22;5696;50.928;6.960;2022-09-09T11:25:59;24.60;93.10
11280;DHT22;5696;50.928;6.960;2022-09-09T11:29:05;24.30;92.90
11280;DHT22;5696;50.928;6.960;2022-09-09T11:31:45;24.10;92.90
11280;DHT22;5696;50.928;6.960;2022-09-09T11:39:38;24.10;93.50
11280;DHT22;5696;50.928;6.960;2022-09-09T11:42:22;24.30;93.50
11280;DHT22;5696;50.928;6.960;2022-09-09T11:44:49;24.70;92.50
11280;DHT22;5696;50.928;6.960;2022-09-09T11:47:31;24.80;91.60
11280;DHT22;5696;50.928;6.960;2022-09-09T11:52:45;25.00;91.30
11280;DHT22;5696;50.928;6.960;2022-09-09T11:55:33;25.20;91.10
11280;DHT22;5696;50.928;6.960;2022-09-09T11:58:14;25.20;90.10
11280;DHT22;5696;50.928;6.960;2022-09-09T12:00:51;24.70;91.30
11280;DHT22;5696;50.928;6.960;2022-09-09T12:03:39;24.70;91.70
11280;DHT22;5696;50.928;6.960;2022-09-09T12:06:17;24.80;90.70
11280;DHT22;5696;50.928;6.960;2022-09-09T12:08:50;24.70;91.00
11280;DHT22;5696;50.928;6.960;2022-09-09T12:11:29;24.00;91.30
11280;DHT22;5696;50.928;6.960;2022-09-09T12:14:00;23.90;92.00
11280;DHT22;5696;50.928;6.960;2022-09-09T12:16:30;23.60;92.50
11280;DHT22;5696;50.928;6.960;2022-09-09T12:21:48;23.70;92.30
11280;DHT22;5696;50.928;6.960;2022-09-09T12:24:27;23.90;92.00
11280;DHT22;5696;50.928;6.960;2022-09-09T12:30:03;24.70;90.50
11280;DHT22;5696;50.928;6.960;2022-09-09T12:32:29;24.60;90.20
11280;DHT22;5696;50.928;6.960;2022-09-09T12:39:59;24.90;89.40
11280;DHT22;5696;50.928;6.960;2022-09-09T12:42:26;24.20;90.20
11280;DHT22;5696;50.928;6.960;2022-09-09T12:45:00;24.10;90.90
11280;DHT22;5696;50.928;6.960;2022-09-09T12:47:38;24.00;90.90
11280;DHT22;5696;50.928;6.960;2022-09-09T12:50:19;23.90;91.10
11280;DHT22;5696;50.928;6.960;2022-09-09T12:55:55;23.90;92.70
11280;DHT22;5696;50.928;6.960;2022-09-09T12:58:21;24.10;92.60
11280;DHT22;5696;50.928;6.960;2022-09-09T13:00:52;24.40;93.30
11280;DHT22;5696;50.928;6.960;2022-09-09T13:03:19;24.90;92.10
11280;DHT22;5696;50.928;6.960;2022-09-09T13:05:48;24.90;91.10
11280;DHT22;5696;50.928;6.960;2022-09-09T13:08:15;25.30;89.20
11280;DHT22;5696;50.928;6.960;2022-09-09T13:11:10;25.30;89.60
11280;DHT22;5696;50.928;6.960;2022-09-09T13:13:38;25.30;88.00
11280;DHT22;5696;50.928;6.960;2022-09-09T13:16:15;24.70;90.10
11280;DHT22;5696;50.928;6.960;2022-09-09T13:18:43;24.70;90.30
11280;DHT22;5696;50.928;6.960;2022-09-09T13:21:09;24.60;90.90
11280;DHT22;5696;50.928;6.960;2022-09-09T13:23:36;24.60;90.80
11280;DHT22;5696;50.928;6.960;2022-09-09T13:26:26;24.70;90.70
11280;DHT22;5696;50.928;6.960;2022-09-09T13:28:55;24.80;89.50
11280;DHT22;5696;50.928;6.960;2022-09-09T13:31:36;24.90;90.10
11280;DHT22;5696;50.928;6.960;2022-09-09T13:34:22;24.90;90.10
11280;DHT22;5696;50.928;6.960;2022-09-09T13:37:04;25.10;90.20
11280;DHT22;5696;50.928;6.960;2022-09-09T13:39:36;25.60;89.80
11280;DHT22;5696;50.928;6.960;2022-09-09T13:42:03;25.50;89.80
11280;DHT22;5696;50.928;6.960;2022-09-09T13:44:34;25.30;89.70
11280;DHT22;5696;50.928;6.960;2022-09-09T13:47:04;25.00;90.40
11280;DHT22;5696;50.928;6.960;2022-09-09T13:49:30;25.20;90.40
11280;DHT22;5696;50.928;6.960;2022-09-09T13:52:25;25.30;90.20
11280;DHT22;5696;50.928;6.960;2022-09-09T13:54:52;25.60;90.00
11280;DHT22;5696;50.928;6.960;2022-09-09T13:57:24;25.30;90.50
11280;DHT22;5696;50.928;6.960;2022-09-09T13:59:51;25.30;90.60
11280;DHT22;5696;50.928;6.960;2022-09-09T14:02:18;25.40;90.30
11280;DHT22;5696;50.928;6.960;2022-09-09T14:04:44;25.00;91.00
11280;DHT22;5696;50.928;6.960;2022-09-09T14:07:17;24.70;91.60
11280;DHT22;5696;50.928;6.960;2022-09-09T14:09:43;24.40;92.00
11280;DHT22;5696;50.928;6.960;2022-09-09T14:12:12;23.90;93.50
11280;DHT22;5696;50.928;6.960;2022-09-09T14:14:40;24.00;93.50
11280;DHT22;5696;50.928;6.960;2022-09-09T14:17:07;24.10;93.70
11280;DHT22;5696;50.928;6.960;2022-09-09T14:19:33;24.10;93.50
11280;DHT22;5696;50.928;6.960;2022-09-09T14:21:59;24.00;93.30
11280;DHT22;5696;50.928;6.960;2022-09-09T14:24:25;23.90;93.70
11280;DHT22;5696;50.928;6.960;2022-09-09T14:26:50;23.80;94.10
11280;DHT22;5696;50.928;6.960;2022-09-09T14:29:16;23.60;94.80
11280;DHT22;5696;50.928;6.960;2022-09-09T14:31:41;23.60;94.90
11280;DHT22;5696;50.928;6.960;2022-09-09T14:34:07;23.30;95.70
11280;DHT22;5696;50.928;6.960;2022-09-09T14:36:33;23.20;96.10
11280;DHT22;5696;50.928;6.960;2022-09-09T14:38:58;22.90;96.90
11280;DHT22;5696;50.928;6.960;2022-09-09T14:41:24;22.50;98.90
11280;DHT22;5696;50.928;6.960;2022-09-09T14:43:51;22.10;99.90
11280;DHT22;5696;50.928;6.960;2022-09-09T14:46:19;21.10;99.90
11280;DHT22;5696;50.928;6.960;2022-09-09T14:48:45;20.10;99.90
11280;DHT22;5696;50.928;6.960;2022-09-09T14:51:34;19.60;99.90
11280;DHT22;5696;50.928;6.960;2022-09-09T14:54:00;19.40;99.90
11280;DHT22;5696;50.928;6.960;2022-09-09T14:56:36;19.10;99.90
11280;DHT22;5696;50.928;6.960;2022-09-09T14:59:03;19.10;99.90
11280;DHT22;5696;50.928;6.960;2022-09-09T15:01:30;19.20;99.90
11280;DHT22;5696;50.928;6.960;2022-09-09T15:03:58;19.30;99.90
11280;DHT22;5696;50.928;6.960;2022-09-09T15:06:25;19.60;99.90
11280;DHT22;5696;50.928;6.960;2022-09-09T15:08:52;19.80;99.90
11280;DHT22;5696;50.928;6.960;2022-09-09T15:11:19;20.20;99.90
11280;DHT22;5696;50.928;6.960;2022-09-09T15:13:45;20.70;99.90
11280;DHT22;5696;50.928;6.960;2022-09-09T15:16:15;20.50;99.90
11280;DHT22;5696;50.928;6.960;2022-09-09T15:18:42;20.60;99.90
11280;DHT22;5696;50.928;6.960;2022-09-09T15:21:12;20.80;99.90
11280;DHT22;5696;50.928;6.960;2022-09-09T15:23:39;20.70;99.90
11280;DHT22;5696;50.928;6.960;2022-09-09T15:26:05;20.80;99.90
11280;DHT22;5696;50.928;6.960;2022-09-09T15:28:33;20.90;99.90
11280;DHT22;5696;50.928;6.960;2022-09-09T15:31:09;21.10;99.90
11280;DHT22;5696;50.928;6.960;2022-09-09T15:33:35;21.10;99.90
11280;DHT22;5696;50.928;6.960;2022-09-09T15:36:15;21.00;99.90
11280;DHT22;5696;50.928;6.960;2022-09-09T15:38:41;21.00;99.90
11280;DHT22;5696;50.928;6.960;2022-09-09T15:41:06;20.90;99.90
11280;DHT22;5696;50.928;6.960;2022-09-09T15:43:32;21.10;99.90
11280;DHT22;5696;50.928;6.960;2022-09-09T15:46:21;20.70;99.90
11280;DHT22;5696;50.928;6.960;2022-09-09T15:48:49;20.80;99.90
11280;DHT22;5696;50.928;6.960;2022-09-09T15:51:16;20.70;99.90
11280;DHT22;5696;50.928;6.960;2022-09-09T15:53:42;20.80;99.90
11280;DHT22;5696;50.928;6.960;2022-09-09T15:56:09;21.00;99.90
11280;DHT22;5696;50.928;6.960;2022-09-09T15:58:35;21.00;99.90
11280;DHT22;5696;50.928;6.960;2022-09-09T16:01:10;20.70;99.90
11280;DHT22;5696;50.928;6.960;2022-09-09T16:03:40;20.40;99.90
11280;DHT22;5696;50.928;6.960;2022-09-09T16:06:20;20.50;99.90
11280;DHT22;5696;50.928;6.960;2022-09-09T16:08:51;20.40;99.90
11280;DHT22;5696;50.928;6.960;2022-09-09T16:11:25;20.30;99.90
11280;DHT22;5696;50.928;6.960;2022-09-09T16:13:53;20.30;99.90
11280;DHT22;5696;50.928;6.960;2022-09-09T16:16:21;20.20;99.90
11280;DHT22;5696;50.928;6.960;2022-09-09T16:18:49;20.20;99.90
11280;DHT22;5696;50.928;6.960;2022-09-09T16:21:23;20.20;99.90
11280;DHT22;5696;50.928;6.960;2022-09-09T16:23:53;20.30;99.90
11280;DHT22;5696;50.928;6.960;2022-09-09T16:26:19;19.90;99.90
11280;DHT22;5696;50.928;6.960;2022-09-09T16:28:45;19.70;99.90
11280;DHT22;5696;50.928;6.960;2022-09-09T16:31:19;19.50;99.90
11280;DHT22;5696;50.928;6.960;2022-09-09T16:33:45;19.70;99.90
11280;DHT22;5696;50.928;6.960;2022-09-09T16:36:38;19.80;99.90
11280;DHT22;5696;50.928;6.960;2022-09-09T16:39:14;19.80;99.90
11280;DHT22;5696;50.928;6.960;2022-09-09T16:41:41;19.80;99.90
11280;DHT22;5696;50.928;6.960;2022-09-09T16:44:10;19.80;99.90
11280;DHT22;5696;50.928;6.960;2022-09-09T16:46:37;19.70;99.90
11280;DHT22;5696;50.928;6.960;2022-09-09T16:49:09;19.60;99.90
11280;DHT22;5696;50.928;6.960;2022-09-09T16:51:41;19.60;99.90
11280;DHT22;5696;50.928;6.960;2022-09-09T16:54:08;19.40;99.90
11280;DHT22;5696;50.928;6.960;2022-09-09T16:56:36;19.30;99.90
11280;DHT22;5696;50.928;6.960;2022-09-09T16:59:05;19.30;99.90
11280;DHT22;5696;50.928;6.960;2022-09-09T17:01:33;19.30;99.90
11280;DHT22;5696;50.928;6.960;2022-09-09T17:04:05;19.30;99.90
11280;DHT22;5696;50.928;6.960;2022-09-09T17:06:32;19.40;99.90
11280;DHT22;5696;50.928;6.960;2022-09-09T17:09:10;19.50;99.90
11280;DHT22;5696;50.928;6.960;2022-09-09T17:11:37;19.30;99.90
11280;DHT22;5696;50.928;6.960;2022-09-09T17:14:03;19.20;99.90
11280;DHT22;5696;50.928;6.960;2022-09-09T17:16:31;19.20;99.90
11280;DHT22;5696;50.928;6.960;2022-09-09T17:18:57;19.30;99.90
11280;DHT22;5696;50.928;6.960;2022-09-09T17:21:25;19.30;99.90
11280;DHT22;5696;50.928;6.960;2022-09-09T17:23:52;19.10;99.90
11280;DHT22;5696;50.928;6.960;2022-09-09T17:26:21;19.20;99.90
11280;DHT22;5696;50.928;6.960;2022-09-09T17:28:47;19.20;99.90
11280;DHT22;5696;50.928;6.960;2022-09-09T17:31:16;19.20;99.90
11280;DHT22;5696;50.928;6.960;2022-09-09T17:33:47;19.00;99.90
11280;DHT22;5696;50.928;6.960;2022-09-09T17:36:33;18.90;99.90
11280;DHT22;5696;50.928;6.960;2022-09-09T17:38:59;18.80;99.90
11280;DHT22;5696;50.928;6.960;2022-09-09T17:41:36;18.90;99.90
11280;DHT22;5696;50.928;6.960;2022-09-09T17:44:03;18.90;99.90
11280;DHT22;5696;50.928;6.960;2022-09-09T17:46:37;18.80;99.90
11280;DHT22;5696;50.928;6.960;2022-09-09T17:49:07;18.80;99.90
11280;DHT22;5696;50.928;6.960;2022-09-09T17:51:35;18.80;99.90
11280;DHT22;5696;50.928;6.960;2022-09-09T17:54:07;18.80;99.90
11280;DHT22;5696;50.928;6.960;2022-09-09T17:56:35;18.90;99.90
11280;DHT22;5696;50.928;6.960;2022-09-09T17:59:02;18.80;99.90
11280;DHT22;5696;50.928;6.960;2022-09-09T18:01:33;18.80;99.90
11280;DHT22;5696;50.928;6.960;2022-09-09T18:04:00;18.80;99.90
11280;DHT22;5696;50.928;6.960;2022-09-09T18:06:29;18.80;99.90
11280;DHT22;5696;50.928;6.960;2022-09-09T18:08:58;18.80;99.90
11280;DHT22;5696;50.928;6.960;2022-09-09T18:11:27;18.80;99.90
11280;DHT22;5696;50.928;6.960;2022-09-09T18:13:55;18.80;99.90
11280;DHT22;5696;50.928;6.960;2022-09-09T18:16:23;18.80;99.90
11280;DHT22;5696;50.928;6.960;2022-09-09T18:18:49;18.80;99.90
11280;DHT22;5696;50.928;6.960;2022-09-09T18:21:16;18.70;99.90
11280;DHT22;5696;50.928;6.960;2022-09-09T18:23:43;18.80;99.90
11280;DHT22;5696;50.928;6.960;2022-09-09T18:26:24;18.80;99.90
11280;DHT22;5696;50.928;6.960;2022-09-09T18:28:53;18.70;99.90
11280;DHT22;5696;50.928;6.960;2022-09-09T18:31:20;18.70;99.90
11280;DHT22;5696;50.928;6.960;2022-09-09T18:33:48;18.60;99.90
11280;DHT22;5696;50.928;6.960;2022-09-09T18:36:20;18.60;99.90
11280;DHT22;5696;50.928;6.960;2022-09-09T18:38:46;18.60;99.90
11280;DHT22;5696;50.928;6.960;2022-09-09T18:41:28;18.60;99.90
11280;DHT22;5696;50.928;6.960;2022-09-09T18:43:57;18.40;99.90
11280;DHT22;5696;50.928;6.960;2022-09-09T18:46:24;18.30;99.90
11280;DHT22;5696;50.928;6.960;2022-09-09T18:48:50;18.30;99.90
11280;DHT22;5696;50.928;6.960;2022-09-09T18:51:18;18.20;99.90
11280;DHT22;5696;50.928;6.960;2022-09-09T18:53:51;18.20;99.90
11280;DHT22;5696;50.928;6.960;2022-09-09T18:56:17;18.10;99.90
11280;DHT22;5696;50.928;6.960;2022-09-09T18:58:43;18.10;99.90
11280;DHT22;5696;50.928;6.960;2022-09-09T19:01:12;18.20;99.90
11280;DHT22;5696;50.928;6.960;2022-09-09T19:03:38;18.10;99.90
11280;DHT22;5696;50.928;6.960;2022-09-09T19:06:13;18.10;99.90
11280;DHT22;5696;50.928;6.960;2022-09-09T19:08:40;18.00;99.90
11280;DHT22;5696;50.928;6.960;2022-09-09T19:11:08;17.90;99.90
11280;DHT22;5696;50.928;6.960;2022-09-09T19:13:35;17.80;99.90
11280;DHT22;5696;50.928;6.960;2022-09-09T19:16:12;17.70;99.90
11280;DHT22;5696;50.928;6.960;2022-09-09T19:18:39;17.60;99.90
11280;DHT22;5696;50.928;6.960;2022-09-09T19:21:20;17.50;99.90
11280;DHT22;5696;50.928;6.960;2022-09-09T19:23:57;17.50;99.90
11280;DHT22;5696;50.928;6.960;2022-09-09T19:26:29;17.50;99.90
11280;DHT22;5696;50.928;6.960;2022-09-09T19:28:57;17.40;99.90
11280;DHT22;5696;50.928;6.960;2022-09-09T19:31:23;17.40;99.90
11280;DHT22;5696;50.928;6.960;2022-09-09T19:33:53;17.30;99.90
11280;DHT22;5696;50.928;6.960;2022-09-09T19:36:21;17.40;99.90
11280;DHT22;5696;50.928;6.960;2022-09-09T19:38:47;17.40;99.90
11280;DHT22;5696;50.928;6.960;2022-09-09T19:41:16;17.40;99.90
11280;DHT22;5696;50.928;6.960;2022-09-09T19:43:43;17.40;99.90
11280;DHT22;5696;50.928;6.960;2022-09-09T19:46:11;17.40;99.90
11280;DHT22;5696;50.928;6.960;2022-09-09T19:48:38;17.30;99.90
11280;DHT22;5696;50.928;6.960;2022-09-09T19:51:08;17.20;99.90
11280;DHT22;5696;50.928;6.960;2022-09-09T19:53:39;17.20;99.90
11280;DHT22;5696;50.928;6.960;2022-09-09T19:56:06;17.20;99.90
11280;DHT22;5696;50.928;6.960;2022-09-09T19:58:34;17.20;99.90
11280;DHT22;5696;50.928;6.960;2022-09-09T20:01:12;17.30;99.90
11280;DHT22;5696;50.928;6.960;2022-09-09T20:03:41;17.30;99.90
11280;DHT22;5696;50.928;6.960;2022-09-09T20:06:09;17.30;99.90
11280;DHT22;5696;50.928;6.960;2022-09-09T20:08:38;17.30;99.90
11280;DHT22;5696;50.928;6.960;2022-09-09T20:11:06;17.30;99.90
11280;DHT22;5696;50.928;6.960;2022-09-09T20:13:33;17.30;99.90
11280;DHT22;5696;50.928;6.960;2022-09-09T20:16:05;17.30;99.90
11280;DHT22;5696;50.928;6.960;2022-09-09T20:18:33;17.30;99.90
11280;DHT22;5696;50.928;6.960;2022-09-09T20:21:05;17.40;99.90
11280;DHT22;5696;50.928;6.960;2022-09-09T20:23:31;17.40;99.90
11280;DHT22;5696;50.928;6.960;2022-09-09T20:26:03;17.40;99.90
11280;DHT22;5696;50.928;6.960;2022-09-09T20:28:30;17.50;99.90
11280;DHT22;5696;50.928;6.960;2022-09-09T20:31:05;17.40;99.90
11280;DHT22;5696;50.928;6.960;2022-09-09T20:33:32;17.40;99.90
11280;DHT22;5696;50.928;6.960;2022-09-09T20:36:08;17.40;99.90
11280;DHT22;5696;50.928;6.960;2022-09-09T20:38:33;17.50;99.90
11280;DHT22;5696;50.928;6.960;2022-09-09T20:41:03;17.50;99.90
11280;DHT22;5696;50.928;6.960;2022-09-09T20:43:29;17.50;99.90
11280;DHT22;5696;50.928;6.960;2022-09-09T20:45:54;17.50;99.90
11280;DHT22;5696;50.928;6.960;2022-09-09T20:48:23;17.50;99.90
11280;DHT22;5696;50.928;6.960;2022-09-09T20:50:49;17.60;99.90
11280;DHT22;5696;50.928;6.960;2022-09-09T20:53:15;17.60;99.90
11280;DHT22;5696;50.928;6.960;2022-09-09T20:55:40;17.60;99.90
11280;DHT22;5696;50.928;6.960;2022-09-09T20:58:06;17.60;99.90
11280;DHT22;5696;50.928;6.960;2022-09-09T21:00:32;17.60;99.90
11280;DHT22;5696;50.928;6.960;2022-09-09T21:02:57;17.60;99.90
11280;DHT22;5696;50.928;6.960;2022-09-09T21:05:24;17.50;99.90
11280;DHT22;5696;50.928;6.960;2022-09-09T21:07:51;17.50;99.90
11280;DHT22;5696;50.928;6.960;2022-09-09T21:10:17;17.40;99.90
11280;DHT22;5696;50.928;6.960;2022-09-09T21:12:45;17.40;99.90
11280;DHT22;5696;50.928;6.960;2022-09-09T21:15:11;17.40;99.90
11280;DHT22;5696;50.928;6.960;2022-09-09T21:17:39;17.30;99.90
11280;DHT22;5696;50.928;6.960;2022-09-09T21:20:05;17.30;99.90
11280;DHT22;5696;50.928;6.960;2022-09-09T21:22:31;17.20;99.90
11280;DHT22;5696;50.928;6.960;2022-09-09T21:24:57;17.20;99.90
11280;DHT22;5696;50.928;6.960;2022-09-09T21:27:23;17.10;99.90
11280;DHT22;5696;50.928;6.960;2022-09-09T21:29:48;17.10;99.90
11280;DHT22;5696;50.928;6.960;2022-09-09T21:32:14;17.10;99.90
11280;DHT22;5696;50.928;6.960;2022-09-09T21:34:40;17.00;99.90
11280;DHT22;5696;50.928;6.960;2022-09-09T21:37:06;17.00;99.90
11280;DHT22;5696;50.928;6.960;2022-09-09T21:39:33;16.90;99.90
11280;DHT22;5696;50.928;6.960;2022-09-09T21:41:59;16.90;99.90
11280;DHT22;5696;50.928;6.960;2022-09-09T21:44:25;16.90;99.90
11280;DHT22;5696;50.928;6.960;2022-09-09T21:46:51;16.90;99.90
11280;DHT22;5696;50.928;6.960;2022-09-09T21:49:17;16.80;99.90
11280;DHT22;5696;50.928;6.960;2022-09-09T21:51:42;16.80;99.90
11280;DHT22;5696;50.928;6.960;2022-09-09T21:54:08;16.90;99.90
11280;DHT22;5696;50.928;6.960;2022-09-09T21:56:34;16.90;99.90
11280;DHT22;5696;50.928;6.960;2022-09-09T21:59:00;16.80;99.90
11280;DHT22;5696;50.928;6.960;2022-09-09T22:01:29;16.80;99.90
11280;DHT22;5696;50.928;6.960;2022-09-09T22:03:58;16.80;99.90
11280;DHT22;5696;50.928;6.960;2022-09-09T22:06:23;16.90;99.90
11280;DHT22;5696;50.928;6.960;2022-09-09T22:08:49;16.90;99.90
11280;DHT22;5696;50.928;6.960;2022-09-09T22:11:18;16.90;99.90
11280;DHT22;5696;50.928;6.960;2022-09-09T22:13:45;16.90;99.90
11280;DHT22;5696;50.928;6.960;2022-09-09T22:16:12;17.00;99.90
11280;DHT22;5696;50.928;6.960;2022-09-09T22:18:39;17.00;99.90
11280;DHT22;5696;50.928;6.960;2022-09-09T22:21:07;17.00;99.90